Time;durP1;ratioP1;P1;durP2;ratioP2;P2;SDS_P1;SDS_P2;PMS_P1;PMS_P2;Temp;Humidity;BMP_temperature;BMP_pressure;BME280_temperature;BME280_humidity;BME280_pressure;Samples;Min_cycle;Max_cycle;Signal;HPM_P1;HPM_P2
2021/12/04 00:00:21;;;;;;;10.77;3.70;;;;;;;4.00;52.33;98467.44;4486438;31;20127;-80
2021/12/04 00:02:50;;;;;;;11.38;3.40;;;;;;;3.97;52.41;98467.56;4487775;31;20092;-79
2021/12/04 00:05:17;;;;;;;11.45;3.50;;;;;;;3.96;52.44;98466.72;4487816;31;20089;-80
2021/12/04 00:07:43;;;;;;;10.20;3.28;;;;;;;3.95;52.48;98451.97;4486665;32;20601;-80
2021/12/04 00:10:09;;;;;;;10.20;3.20;;;;;;;3.97;52.43;98455.38;4486390;32;20123;-80
2021/12/04 00:12:35;;;;;;;10.63;3.78;;;;;;;3.99;52.40;98447.50;4486787;32;20353;-79
2021/12/04 00:15:01;;;;;;;10.55;3.60;;;;;;;3.97;52.47;98450.16;4486589;32;20102;-80
2021/12/04 00:17:27;;;;;;;9.90;3.50;;;;;;;3.98;52.79;98448.41;4487910;31;20710;-79
2021/12/04 00:19:53;;;;;;;10.38;3.47;;;;;;;3.98;52.67;98437.97;4486689;32;20100;-80
2021/12/04 00:22:19;;;;;;;11.00;3.33;;;;;;;3.95;52.65;98438.94;4487842;31;20096;-80
2021/12/04 00:24:44;;;;;;;9.65;3.60;;;;;;;3.96;52.72;98442.38;4486413;32;20407;-80
2021/12/04 00:27:10;;;;;;;10.18;3.20;;;;;;;3.94;52.69;98438.09;4487809;31;20084;-80
2021/12/04 00:29:35;;;;;;;10.80;3.45;;;;;;;3.91;52.74;98430.34;4487800;31;20092;-79
2021/12/04 00:32:03;;;;;;;11.50;3.65;;;;;;;3.96;52.75;98421.53;4487373;31;20149;-80
2021/12/04 00:34:30;;;;;;;11.57;3.80;;;;;;;3.96;52.90;98429.34;4486385;32;20072;-79
2021/12/04 00:50:27;;;;;;;9.60;2.97;;;;;;;3.81;51.69;98422.91;4487262;32;20505;-80
2021/12/04 00:52:54;;;;;;;12.10;3.92;;;;;;;3.64;52.65;98429.50;4486160;32;20136;-80
2021/12/04 00:55:19;;;;;;;10.23;3.53;;;;;;;3.70;52.56;98428.47;4487341;31;20448;-80
2021/12/04 00:57:45;;;;;;;11.35;3.33;;;;;;;3.73;52.35;98438.81;4487270;31;20092;-80
2021/12/04 01:00:11;;;;;;;10.07;3.42;;;;;;;3.75;52.35;98437.00;4486120;32;20092;-80
2021/12/04 01:02:36;;;;;;;10.77;3.58;;;;;;;3.73;52.36;98428.38;4486095;32;20127;-80
2021/12/04 01:05:02;;;;;;;12.52;3.70;;;;;;;3.74;52.39;98430.06;4487190;31;20104;-81
2021/12/04 01:07:28;;;;;;;11.88;3.87;;;;;;;3.70;52.47;98431.06;4485992;32;20243;-82
2021/12/04 01:09:53;;;;;;;10.90;3.47;;;;;;;3.71;52.68;98428.44;4486993;31;20480;-82
2021/12/04 01:12:20;;;;;;;10.57;3.90;;;;;;;3.74;52.59;98427.47;4487261;31;20084;-84
2021/12/04 01:14:46;;;;;;;11.30;3.45;;;;;;;3.72;52.41;98427.50;4487168;31;20076;-81
2021/12/04 01:17:11;;;;;;;11.00;3.30;;;;;;;3.72;52.30;98427.50;4487171;31;20134;-82
2021/12/04 01:19:36;;;;;;;9.90;3.22;;;;;;;3.69;52.24;98432.84;4487198;31;20107;-82
2021/12/04 01:22:04;;;;;;;11.75;3.50;;;;;;;3.68;52.25;98432.88;4485940;32;20075;-82
2021/12/04 01:24:29;;;;;;;10.30;3.57;;;;;;;3.70;52.37;98437.13;4487270;31;20397;-82
2021/12/04 01:26:55;;;;;;;11.75;3.28;;;;;;;3.72;52.34;98439.69;4487122;31;20081;-82
2021/12/04 01:29:20;;;;;;;9.98;3.60;;;;;;;3.71;52.46;98436.25;4487085;31;20131;-82
2021/12/04 01:31:47;;;;;;;10.30;3.42;;;;;;;3.51;52.72;98438.63;4487042;32;20108;-82
2021/12/04 01:34:13;;;;;;;9.52;3.22;;;;;;;3.63;52.15;98430.44;4485969;32;20496;-82
2021/12/04 01:36:38;;;;;;;13.05;3.97;;;;;;;3.65;52.37;98432.97;4485092;32;20172;-82
2021/12/04 01:39:05;;;;;;;12.27;3.65;;;;;;;3.68;52.45;98433.72;4487167;31;20180;-82
2021/12/04 01:41:32;;;;;;;9.88;3.30;;;;;;;3.65;52.61;98431.22;4485755;32;20106;-82
2021/12/04 01:43:59;;;;;;;11.65;3.65;;;;;;;3.49;52.98;98425.63;4487007;31;20511;-82
2021/12/04 01:46:26;;;;;;;9.93;3.65;;;;;;;3.58;52.70;98424.50;4485818;32;20104;-82
2021/12/04 01:48:51;;;;;;;9.67;3.13;;;;;;;3.59;53.01;98434.00;4486974;31;20482;-82
2021/12/04 01:51:17;;;;;;;9.57;3.05;;;;;;;3.65;53.00;98427.75;4486795;31;20172;-82
2021/12/04 01:53:42;;;;;;;10.27;3.10;;;;;;;3.65;53.19;98435.56;4486871;31;20085;-82
2021/12/04 01:56:08;;;;;;;9.68;3.20;;;;;;;3.62;53.35;98423.50;4486791;31;20156;-82
2021/12/04 01:58:33;;;;;;;11.82;3.40;;;;;;;3.61;53.44;98419.22;4486896;31;20376;-82
2021/12/04 02:00:59;;;;;;;10.70;3.60;;;;;;;3.59;53.67;98415.78;4485797;32;20147;-82
2021/12/04 02:03:24;;;;;;;11.00;3.50;;;;;;;3.61;53.60;98400.09;4487134;31;20123;-82
2021/12/04 02:05:50;;;;;;;11.27;3.50;;;;;;;3.66;53.70;98401.66;4486962;31;20391;-82
2021/12/04 02:08:21;;;;;;;10.50;3.20;;;;;;;3.63;53.71;98396.56;4487087;31;20108;-82
2021/12/04 02:10:49;;;;;;;9.80;3.53;;;;;;;3.62;53.53;98402.66;4486677;31;20118;-82
2021/12/04 02:13:15;;;;;;;10.48;3.12;;;;;;;3.62;53.62;98400.06;4486804;31;20081;-82
2021/12/04 02:15:41;;;;;;;10.57;3.55;;;;;;;3.55;53.47;98408.97;4486991;31;20119;-81
2021/12/04 02:18:08;;;;;;;9.75;2.85;;;;;;;3.54;53.06;98410.72;4486806;31;20081;-81
2021/12/04 02:20:35;;;;;;;10.52;3.53;;;;;;;3.51;53.11;98399.56;4486682;31;20147;-81
2021/12/04 02:23:02;;;;;;;10.25;3.25;;;;;;;3.54;52.92;98386.44;4486517;31;20110;-81
2021/12/04 02:25:27;;;;;;;10.05;3.30;;;;;;;3.47;52.84;98383.16;4486533;31;20096;-81
2021/12/04 02:27:52;;;;;;;11.38;3.15;;;;;;;3.39;52.60;98384.34;4486519;31;20111;-82
2021/12/04 02:30:20;;;;;;;10.88;3.58;;;;;;;3.47;52.25;98388.38;4486248;31;20092;-82
2021/12/04 02:32:46;;;;;;;;;;;;;;;3.31;53.06;98393.22;4486712;31;20072;-82
2021/12/04 02:35:13;;;;;;;10.05;2.80;;;;;;;3.38;53.17;98390.44;4486495;31;20111;-82
2021/12/04 02:37:39;;;;;;;10.23;3.55;;;;;;;3.40;52.86;98383.41;4486285;31;20156;-81
2021/12/04 02:40:08;;;;;;;11.30;3.30;;;;;;;3.39;52.85;98373.91;4486249;31;20118;-81
2021/12/04 02:42:34;;;;;;;10.10;3.40;;;;;;;3.41;52.93;98377.31;4486134;31;20107;-81
2021/12/04 02:45:01;;;;;;;10.68;3.47;;;;;;;3.43;53.18;98372.91;4486231;31;20136;-81
2021/12/04 02:47:28;;;;;;;11.30;2.97;;;;;;;3.41;53.30;98374.72;4486520;31;20100;-81
2021/12/04 02:49:55;;;;;;;9.90;3.25;;;;;;;3.38;53.31;98380.88;4488422;31;20084;-81
2021/12/04 02:52:21;;;;;;;12.07;3.20;;;;;;;3.36;53.31;98364.44;4488527;32;20127;-80
2021/12/04 02:54:48;;;;;;;10.65;3.60;;;;;;;3.42;53.20;98377.28;4488479;31;20104;-81
2021/12/04 02:57:15;;;;;;;10.60;3.40;;;;;;;3.44;53.08;98375.47;4488277;31;20167;-81
2021/12/04 02:59:42;;;;;;;10.70;3.78;;;;;;;3.47;52.80;98369.31;4488130;31;20127;-81
2021/12/04 03:02:17;;;;;;;11.30;3.78;;;;;;;3.15;53.26;98366.00;4487008;32;20111;-81
2021/12/04 03:04:44;;;;;;;10.43;3.65;;;;;;;3.20;53.35;98363.25;4488132;31;20119;-81
2021/12/04 03:07:09;;;;;;;9.98;3.17;;;;;;;3.14;53.51;98367.72;4487294;32;20462;-81
2021/12/04 03:09:35;;;;;;;11.38;3.47;;;;;;;3.23;53.31;98377.00;4488372;31;20141;-81
2021/12/04 03:12:05;;;;;;;10.95;3.67;;;;;;;3.27;53.29;98368.19;4488183;31;20462;-81
2021/12/04 03:14:31;;;;;;;10.68;3.90;;;;;;;3.24;53.40;98370.03;4488170;31;20105;-81
2021/12/04 03:16:57;;;;;;;10.40;3.55;;;;;;;3.23;53.12;98364.00;4487911;31;20147;-81
2021/12/04 03:19:23;;;;;;;11.75;3.83;;;;;;;3.24;53.16;98368.28;4488111;32;20097;-81
2021/12/04 03:21:49;;;;;;;11.10;3.72;;;;;;;3.06;53.56;98366.28;4487905;31;20080;-81
2021/12/04 03:24:16;;;;;;;10.75;3.20;;;;;;;3.13;53.45;98363.44;4487894;31;20153;-81
2021/12/04 03:26:42;;;;;;;12.18;3.62;;;;;;;3.20;53.50;98361.47;4487954;31;20119;-82
2021/12/04 03:29:12;;;;;;;10.20;3.42;;;;;;;3.22;53.56;98359.69;4488025;31;20115;-81
2021/12/04 03:42:30;;;;;;;12.95;4.15;;;;;;;3.23;53.46;98329.31;4442954;32;20093;-82
2021/12/04 03:44:55;;;;;;;10.73;3.67;;;;;;;3.25;53.38;98324.91;4454178;32;20187;-82
2021/12/04 03:47:22;;;;;;;11.48;3.28;;;;;;;3.26;53.31;98316.19;4441437;32;20117;-82
2021/12/04 03:49:48;;;;;;;12.90;3.87;;;;;;;3.26;53.29;98309.22;4454470;32;20161;-82
2021/12/04 03:52:14;;;;;;;12.25;3.83;;;;;;;3.27;53.51;98305.72;4454437;32;20465;-82
2021/12/04 03:54:39;;;;;;;11.23;4.00;;;;;;;3.31;53.44;98302.13;4454210;32;20125;-81
2021/12/04 03:57:06;;;;;;;11.85;3.92;;;;;;;3.29;53.42;98300.47;4454226;32;20117;-82
2021/12/04 03:59:37;;;;;;;11.23;3.92;;;;;;;3.29;53.42;98300.47;4453777;32;20101;-82
2021/12/04 04:02:05;;;;;;;11.77;3.67;;;;;;;3.29;53.16;98300.47;4441596;32;20116;-82
2021/12/04 04:04:31;;;;;;;11.48;3.80;;;;;;;3.28;53.28;98289.22;4454501;32;20887;-82
2021/12/04 04:06:59;;;;;;;10.98;3.67;;;;;;;3.00;53.89;98296.22;4454407;32;20112;-81
2021/12/04 04:09:24;;;;;;;;;;;;;;;3.10;53.60;98292.41;4428912;32;20470;-81
2021/12/04 04:11:49;;;;;;;10.80;3.33;;;;;;;3.05;53.64;98296.91;4481340;32;19972;-82
2021/12/04 04:14:15;;;;;;;11.43;3.97;;;;;;;3.07;53.58;98285.56;4487633;31;20360;-82
2021/12/04 04:16:41;;;;;;;10.68;3.78;;;;;;;3.05;54.12;98289.97;4487637;31;20123;-82
2021/12/04 04:19:07;;;;;;;12.27;4.40;;;;;;;3.07;54.13;98288.16;4486350;32;20431;-81
2021/12/04 04:21:39;;;;;;;14.30;4.28;;;;;;;3.11;54.04;98281.97;4487575;32;20107;-81
2021/12/04 04:24:17;;;;;;;12.65;4.35;;;;;;;3.08;54.04;98278.59;4487571;31;20131;-81
2021/12/04 04:26:43;;;;;;;12.00;4.65;;;;;;;3.01;54.32;98279.69;4487600;31;20148;-82
2021/12/04 04:29:09;;;;;;;12.10;4.22;;;;;;;2.99;54.52;98281.50;4486367;32;20178;-81
2021/12/04 04:31:36;;;;;;;14.55;4.65;;;;;;;3.02;54.61;98286.59;4487321;31;20092;-81
2021/12/04 04:34:07;;;;;;;13.88;4.82;;;;;;;2.95;54.81;98286.81;4486273;32;20105;-80
2021/12/04 04:39:35;;;;;;;14.05;4.30;;;;;;;2.61;55.70;98289.59;4486410;32;20088;-81
2021/12/04 05:14:32;;;;;;;12.50;4.05;;;;;;;2.79;54.79;98297.75;4487337;31;20085;-81
2021/12/04 05:19:46;;;;;;;10.85;4.20;;;;;;;2.81;54.92;98299.38;4453560;32;20287;-81
2021/12/04 05:22:13;;;;;;;;;;;;;;;2.82;54.90;98298.50;4453959;32;20085;-81
2021/12/04 05:24:39;;;;;;;12.02;4.25;;;;;;;2.85;54.96;98294.94;4453578;32;20150;-81
2021/12/04 05:27:06;;;;;;;12.55;4.40;;;;;;;2.82;55.08;98293.28;4453666;32;20125;-81
2021/12/04 05:29:31;;;;;;;12.40;4.45;;;;;;;2.79;55.20;98290.78;4440802;32;20108;-81
2021/12/04 05:31:57;;;;;;;13.40;4.32;;;;;;;2.78;55.38;98283.00;4453438;32;20147;-81
2021/12/04 05:34:22;;;;;;;13.00;4.07;;;;;;;2.78;55.42;98290.81;4440487;32;20128;-81
2021/12/04 05:36:48;;;;;;;12.15;4.37;;;;;;;2.71;55.71;98293.63;4453538;32;20152;-81
2021/12/04 05:39:13;;;;;;;12.68;4.50;;;;;;;2.74;55.54;98290.06;4440616;32;20520;-81
2021/12/04 05:41:39;;;;;;;14.45;5.22;;;;;;;2.77;55.15;98289.13;4453614;32;20136;-81
2021/12/04 05:44:06;;;;;;;15.95;5.40;;;;;;;2.80;55.19;98289.88;4453379;32;20469;-81
2021/12/04 05:46:39;;;;;;;18.12;5.37;;;;;;;2.75;55.36;98291.78;4440735;32;20121;-81
2021/12/04 05:49:14;;;;;;;15.95;6.30;;;;;;;2.73;55.55;98288.38;4453518;32;20116;-82
2021/12/04 05:54:32;;;;;;;19.65;7.25;;;;;;;2.80;55.04;98292.50;4453502;32;20101;-82
2021/12/04 05:56:59;;;;;;;23.33;7.18;;;;;;;2.77;55.14;98287.38;4471788;32;20104;-82
2021/12/04 05:59:24;;;;;;;22.83;7.37;;;;;;;2.71;55.40;98288.41;4486837;31;20155;-82
2021/12/04 06:01:50;;;;;;;23.10;8.02;;;;;;;2.72;55.30;98282.31;4486796;31;20401;-81
2021/12/04 06:04:15;;;;;;;24.42;8.75;;;;;;;2.75;55.20;98284.81;4486865;31;20440;-81
2021/12/04 06:06:43;;;;;;;26.30;8.82;;;;;;;2.73;55.34;98284.00;4485554;32;20101;-82
2021/12/04 06:09:09;;;;;;;18.98;6.00;;;;;;;2.78;55.31;98276.06;4486817;31;20139;-82
2021/12/04 06:11:34;;;;;;;16.55;6.40;;;;;;;2.75;55.25;98271.81;4485243;32;20152;-81
2021/12/04 06:14:00;;;;;;;16.60;6.47;;;;;;;2.73;55.28;98277.97;4486657;31;20080;-82
2021/12/04 06:16:26;;;;;;;16.50;6.12;;;;;;;2.67;55.48;98272.97;4485472;32;20115;-81
2021/12/04 06:18:53;;;;;;;18.30;6.30;;;;;;;2.68;55.38;98270.28;4486602;32;20096;-81
2021/12/04 06:24:04;;;;;;;16.17;6.10;;;;;;;2.69;55.78;98269.41;4486240;32;20148;-81
2021/12/04 06:26:34;;;;;;;15.32;5.78;;;;;;;2.73;55.87;98264.97;4485358;32;20131;-81
2021/12/04 06:29:00;;;;;;;16.00;6.45;;;;;;;2.71;55.89;98270.22;4486546;31;20092;-81
2021/12/04 06:31:26;;;;;;;18.42;7.40;;;;;;;2.75;55.98;98270.97;4485096;32;20118;-82
2021/12/04 06:33:52;;;;;;;17.65;6.82;;;;;;;2.81;56.02;98273.38;4486447;31;20084;-82
2021/12/04 06:36:17;;;;;;;17.87;5.50;;;;;;;2.80;55.71;98268.22;4486405;31;20088;-82
2021/12/04 06:38:43;;;;;;;14.35;5.07;;;;;;;2.63;55.67;98268.75;4485091;32;20123;-81
2021/12/04 06:41:09;;;;;;;16.85;5.95;;;;;;;2.59;55.98;98268.00;4486308;31;20110;-82
2021/12/04 06:43:36;;;;;;;16.35;6.50;;;;;;;2.48;56.81;98268.31;4485075;32;20142;-81
2021/12/04 06:46:04;;;;;;;16.42;5.70;;;;;;;2.48;56.94;98264.88;4486213;31;20152;-81
2021/12/04 06:48:38;;;;;;;15.38;5.22;;;;;;;2.62;56.92;98270.47;4485001;32;20108;-81
2021/12/04 06:51:22;;;;;;;13.88;5.20;;;;;;;2.69;56.75;98260.75;4486068;31;20085;-80
2021/12/04 06:54:14;;;;;;;14.55;5.03;;;;;;;2.81;56.51;98259.53;4485090;32;20170;-80
2021/12/04 06:56:38;;;;;;;13.35;4.82;;;;;;;2.84;56.36;98257.69;4485911;32;20187;-82
2021/12/04 06:59:10;;;;;;;14.90;5.50;;;;;;;2.97;56.15;98252.91;4485304;32;20096;-81
2021/12/04 07:01:36;;;;;;;13.80;5.30;;;;;;;3.05;56.12;98247.47;4485926;31;20431;-81
2021/12/04 07:04:02;;;;;;;15.98;6.05;;;;;;;3.13;55.96;98240.28;4484750;32;20467;-81
2021/12/04 07:06:27;;;;;;;15.88;6.05;;;;;;;3.20;55.79;98243.50;4485735;31;20092;-81
2021/12/04 07:08:53;;;;;;;15.20;6.40;;;;;;;3.26;55.52;98238.09;4484703;32;20096;-81
2021/12/04 07:11:18;;;;;;;17.15;5.72;;;;;;;3.32;55.14;98240.47;4471264;32;20088;-80
2021/12/04 07:13:44;;;;;;;12.82;5.12;;;;;;;3.41;54.80;98223.69;4485762;31;20064;-81
2021/12/04 07:16:13;;;;;;;15.55;5.95;;;;;;;3.49;54.83;98227.72;4485778;32;20127;-82
2021/12/04 07:18:40;;;;;;;15.82;6.22;;;;;;;3.53;54.70;98234.56;4484414;32;20108;-82
2021/12/04 07:21:05;;;;;;;18.27;6.62;;;;;;;3.59;54.39;98225.66;4484423;31;20116;-84
2021/12/04 07:23:31;;;;;;;16.23;6.37;;;;;;;3.64;54.19;98226.34;4490911;31;20080;-88
2021/12/04 07:25:57;;;;;;;15.55;6.30;;;;;;;3.66;54.18;98221.94;4487132;31;20104;-88
2021/12/04 07:28:22;;;;;;;15.70;6.43;;;;;;;3.80;54.02;98234.44;4477263;32;20138;-83
2021/12/04 07:30:48;;;;;;;16.37;6.18;;;;;;;3.90;53.69;98217.59;4491305;31;20108;-83
2021/12/04 07:33:13;;;;;;;15.82;6.15;;;;;;;3.84;53.50;98203.94;4491629;31;20518;-83
2021/12/04 07:35:39;;;;;;;14.60;5.47;;;;;;;3.90;53.43;98203.69;4498645;31;20108;-83
2021/12/04 07:38:04;;;;;;;15.05;5.45;;;;;;;3.84;53.65;98196.13;4490009;31;20119;-83
2021/12/04 07:40:30;;;;;;;13.75;5.80;;;;;;;3.92;53.10;98205.38;4497304;31;20132;-84
2021/12/04 07:42:55;;;;;;;13.77;5.82;;;;;;;3.98;52.79;98199.06;4495910;31;20072;-83
2021/12/04 07:45:21;;;;;;;12.68;6.00;;;;;;;3.95;52.70;98199.19;4497262;31;20398;-83
2021/12/04 07:47:47;;;;;;;16.52;6.43;;;;;;;3.98;52.61;98196.47;4486344;32;20126;-83
2021/12/04 07:50:13;;;;;;;17.65;6.80;;;;;;;4.01;52.56;98196.34;4500178;31;20544;-83
2021/12/04 07:52:39;;;;;;;16.58;7.18;;;;;;;3.98;52.72;98195.59;4473367;32;20084;-83
2021/12/04 07:55:06;;;;;;;16.45;7.10;;;;;;;4.00;52.49;98192.03;4487516;31;20132;-81
2021/12/04 07:57:32;;;;;;;20.58;7.35;;;;;;;3.89;52.53;98192.44;4487004;32;20114;-79
2021/12/04 07:59:57;;;;;;;16.77;7.65;;;;;;;3.98;52.69;98191.25;4487253;31;20088;-81
2021/12/04 08:02:23;;;;;;;20.00;8.68;;;;;;;4.04;52.60;98192.78;4486260;32;20111;-81
2021/12/04 08:04:48;;;;;;;20.98;9.15;;;;;;;3.96;52.59;98194.81;4486526;31;20204;-81
2021/12/04 08:07:14;;;;;;;19.62;8.85;;;;;;;3.93;52.86;98201.00;4486115;32;20104;-81
2021/12/04 08:09:39;;;;;;;20.85;9.65;;;;;;;3.93;53.11;98201.00;4471743;32;20152;-81
2021/12/04 08:12:05;;;;;;;19.37;9.68;;;;;;;3.96;53.26;98200.91;4471638;32;20084;-81
2021/12/04 08:14:31;;;;;;;20.33;9.70;;;;;;;3.96;53.34;98194.81;4486213;32;20112;-81
2021/12/04 08:16:56;;;;;;;24.23;10.82;;;;;;;3.99;53.35;98189.50;4486523;32;20118;-81
2021/12/04 08:19:21;;;;;;;22.77;10.77;;;;;;;4.00;53.19;98189.44;4486496;32;20088;-81
2021/12/04 08:21:47;;;;;;;25.45;11.43;;;;;;;4.09;53.09;98199.50;4473257;32;20089;-81
2021/12/04 08:24:12;;;;;;;24.08;11.40;;;;;;;4.04;53.40;98198.00;4487384;32;20096;-81
2021/12/04 08:26:38;;;;;;;24.58;12.37;;;;;;;4.01;53.81;98200.72;4487497;32;20101;-81
2021/12/04 08:29:05;;;;;;;28.55;13.45;;;;;;;4.07;53.76;98198.69;4473243;32;20450;-81
2021/12/04 08:31:30;;;;;;;24.73;13.15;;;;;;;4.17;53.66;98203.56;4487708;32;20111;-81
2021/12/04 08:33:56;;;;;;;29.67;14.45;;;;;;;4.25;52.94;98201.53;4460344;32;20105;-81
2021/12/04 08:36:21;;;;;;;32.85;14.80;;;;;;;4.17;52.99;98196.59;4487734;32;20145;-81
2021/12/04 08:38:47;;;;;;;32.97;15.63;;;;;;;4.23;53.13;98191.19;4473454;32;20112;-81
2021/12/04 08:41:15;;;;;;;32.40;15.10;;;;;;;4.25;53.22;98193.69;4487643;32;20425;-81
2021/12/04 08:43:40;;;;;;;31.85;15.20;;;;;;;4.36;52.89;98185.47;4487633;32;20084;-81
2021/12/04 08:46:06;;;;;;;27.98;16.02;;;;;;;4.35;52.72;98182.03;4473259;32;20478;-81
2021/12/04 08:48:33;;;;;;;28.83;14.43;;;;;;;4.37;52.74;98181.97;4487582;32;20136;-81
2021/12/04 08:50:59;;;;;;;34.00;17.08;;;;;;;4.41;53.06;98178.31;4487571;32;20438;-81
2021/12/04 08:53:24;;;;;;;29.27;14.05;;;;;;;4.45;53.18;98182.50;4473372;32;20104;-81
2021/12/04 08:55:50;;;;;;;29.83;14.80;;;;;;;4.51;53.04;98177.88;4487571;32;20123;-81
2021/12/04 08:58:15;;;;;;;29.00;14.93;;;;;;;4.59;53.01;98180.19;4473316;32;20456;-81
2021/12/04 09:00:54;;;;;;;24.30;12.82;;;;;;;4.71;52.66;98178.84;4487554;32;20343;-81
2021/12/04 09:03:24;;;;;;;;;;;;;;;4.76;52.63;98182.13;4473705;32;20138;-81
2021/12/04 09:05:50;;;;;;;30.27;13.73;;;;;;;4.91;52.28;98176.28;4487600;32;20341;-82
2021/12/04 09:08:17;;;;;;;26.58;12.15;;;;;;;4.96;52.26;98175.22;4487567;32;20084;-81
2021/12/04 09:10:45;;;;;;;24.95;11.88;;;;;;;4.99;51.76;98181.19;4487110;32;20093;-82
2021/12/04 09:13:11;;;;;;;23.80;11.65;;;;;;;5.01;51.99;98174.13;4487487;32;20137;-81
2021/12/04 09:15:38;;;;;;;19.98;9.93;;;;;;;5.18;51.85;98167.38;4487449;32;20088;-81
2021/12/04 09:18:04;;;;;;;22.73;10.40;;;;;;;5.29;51.27;98157.28;4487429;32;20163;-81
2021/12/04 09:20:30;;;;;;;24.42;10.98;;;;;;;5.42;50.91;98155.84;4487464;32;20435;-82
2021/12/04 09:22:57;;;;;;;23.62;10.63;;;;;;;5.53;50.52;98149.31;4473336;32;20103;-82
2021/12/04 09:25:24;;;;;;;22.20;10.80;;;;;;;5.66;50.49;98143.47;4487348;32;20100;-82
2021/12/04 09:30:49;;;;;;;26.48;11.32;;;;;;;5.86;49.55;98137.31;4487072;32;20092;-82
2021/12/04 10:00:54;;;;;;;20.70;9.15;;;;;;;6.35;46.81;98102.81;4437852;32;20499;-82
2021/12/04 10:34:36;;;;;;;29.50;12.65;;;;;;;6.22;47.25;98057.22;4437475;32;20167;-82
2021/12/04 10:37:06;;;;;;;27.77;13.98;;;;;;;6.28;47.32;98046.50;4437324;32;20093;-82
2021/12/04 10:39:31;;;;;;;29.70;14.65;;;;;;;6.26;47.05;98041.34;4424432;32;20499;-82
2021/12/04 10:41:59;;;;;;;32.53;14.35;;;;;;;6.24;47.17;98032.72;4417814;31;20114;-82
2021/12/04 10:44:26;;;;;;;30.10;14.77;;;;;;;6.26;47.16;98030.88;4487354;31;20500;-81
2021/12/04 10:47:08;;;;;;;27.13;13.25;;;;;;;6.30;47.09;98021.09;4497746;31;20538;-82
2021/12/04 10:52:19;;;;;;;29.48;12.85;;;;;;;6.43;46.52;98008.25;4486100;32;20096;-82
2021/12/04 10:54:50;;;;;;;29.20;14.45;;;;;;;6.44;45.32;98004.72;4486197;32;20068;-81
2021/12/04 11:00:10;;;;;;;30.92;13.68;;;;;;;6.39;45.33;97998.88;4486998;31;20131;-81
2021/12/04 11:02:50;;;;;;;29.85;14.10;;;;;;;6.43;45.30;97996.03;4488763;31;20092;-81
2021/12/04 11:05:44;;;;;;;34.85;15.07;;;;;;;6.53;44.87;97985.94;4501745;31;20076;-81
2021/12/04 11:39:24;;;;;;;18.15;8.25;;;;;;;5.91;43.72;97943.69;4423505;32;20097;-81
2021/12/04 11:41:56;;;;;;;16.70;7.10;;;;;;;5.89;43.08;97945.50;4407932;32;20148;-77
2021/12/04 11:44:29;;;;;;;18.65;7.65;;;;;;;5.88;42.62;97939.44;4397348;32;20106;-81
2021/12/04 11:46:56;;;;;;;19.05;7.90;;;;;;;5.89;41.24;97930.69;4408419;32;20453;-82
2021/12/04 11:49:26;;;;;;;20.92;7.40;;;;;;;5.82;41.23;97934.50;4395749;32;20204;-82
2021/12/04 11:52:11;;;;;;;17.70;7.50;;;;;;;5.80;41.61;97925.91;4408033;32;20078;-82
2021/12/04 11:55:08;;;;;;;19.35;7.90;;;;;;;5.90;41.39;97915.84;4396286;32;20121;-81
2021/12/04 11:57:35;;;;;;;18.92;7.28;;;;;;;6.04;40.83;97907.34;4425527;32;20455;-81
2021/12/04 12:00:34;;;;;;;17.73;6.87;;;;;;;5.98;40.83;97912.87;4487810;32;20431;-81
2021/12/04 12:03:12;;;;;;;17.45;7.07;;;;;;;5.98;40.79;97900.62;4473201;32;20085;-82
2021/12/04 12:05:47;;;;;;;18.70;7.45;;;;;;;6.02;40.82;97906.56;4487695;32;20100;-80
2021/12/04 12:08:32;;;;;;;16.45;6.28;;;;;;;5.99;41.06;97899.72;4487906;32;20103;-81
2021/12/04 12:11:05;;;;;;;17.67;6.55;;;;;;;5.95;40.41;97898.19;4487612;32;20140;-81
2021/12/04 12:13:32;;;;;;;17.85;7.00;;;;;;;5.98;40.49;97894.56;4488045;32;20080;-82
2021/12/04 12:16:06;;;;;;;17.00;7.07;;;;;;;5.98;40.42;97891.97;4487708;32;20100;-81
2021/12/04 12:18:43;;;;;;;19.25;8.13;;;;;;;5.92;40.74;97890.47;4487649;32;20092;-81
2021/12/04 12:21:11;;;;;;;15.40;6.80;;;;;;;6.00;41.05;97890.09;4487260;32;20106;-81
2021/12/04 12:32:37;;;;;;;17.45;7.03;;;;;;;5.94;41.17;97890.37;4454070;32;20199;-81
2021/12/04 12:37:48;;;;;;;18.65;6.80;;;;;;;5.84;41.60;97882.16;4453990;32;20480;-82
2021/12/04 12:40:16;;;;;;;17.98;7.12;;;;;;;5.77;41.84;97886.84;4441037;32;20104;-81
2021/12/04 12:42:43;;;;;;;17.45;7.30;;;;;;;5.80;41.42;97893.69;4453966;32;20089;-81
2021/12/04 12:45:18;;;;;;;17.10;7.12;;;;;;;5.75;41.29;97880.84;4453879;32;20081;-79
2021/12/04 12:47:49;;;;;;;19.02;7.65;;;;;;;5.83;41.54;97868.25;4453905;32;20132;-81
2021/12/04 12:50:41;;;;;;;17.65;7.65;;;;;;;5.87;41.34;97869.78;4440947;32;20127;-83
2021/12/04 12:53:14;;;;;;;19.17;8.20;;;;;;;5.84;41.18;97869.94;4453891;32;20678;-83
2021/12/04 12:55:41;;;;;;;19.62;7.95;;;;;;;5.71;41.50;97882.75;4440873;32;20073;-83
2021/12/04 12:58:23;;;;;;;16.40;8.05;;;;;;;5.69;42.17;97879.38;4440952;32;20109;-83
2021/12/04 13:12:05;;;;;;;19.27;8.80;;;;;;;5.63;42.35;97865.78;4474932;32;20160;-83
2021/12/04 13:14:45;;;;;;;23.05;9.27;;;;;;;5.55;42.73;97865.31;4487332;32;20103;-82
2021/12/04 13:17:25;;;;;;;21.02;9.15;;;;;;;5.55;43.17;97863.53;4487314;32;20072;-81
2021/12/04 13:19:53;;;;;;;21.90;9.68;;;;;;;5.50;43.15;97868.13;4487332;32;20120;-81
2021/12/04 13:22:22;;;;;;;21.20;10.07;;;;;;;5.52;43.36;97871.53;4487189;32;20100;-82
2021/12/04 13:24:49;;;;;;;24.85;10.00;;;;;;;5.58;43.71;97870.38;4472848;32;20539;-83
2021/12/04 13:29:54;;;;;;;22.05;9.68;;;;;;;5.59;43.35;97872.09;4487066;32;20100;-90
2021/12/04 13:32:39;;;;;;;26.62;10.95;;;;;;;5.66;43.38;97874.31;4471825;32;20118;-83
2021/12/04 13:35:11;;;;;;;22.08;10.40;;;;;;;5.71;43.28;97868.84;4472924;32;20093;-82
2021/12/04 13:37:37;;;;;;;20.75;9.20;;;;;;;5.87;43.25;97868.94;4487036;32;20131;-82
2021/12/04 13:40:06;;;;;;;24.60;10.70;;;;;;;5.96;42.46;97851.97;4472927;32;20134;-82
2021/12/04 13:42:33;;;;;;;24.33;9.73;;;;;;;5.99;41.94;97849.19;4487090;32;20092;-82
2021/12/04 13:45:00;;;;;;;21.92;9.63;;;;;;;5.97;42.21;97848.44;4486977;32;20155;-83
2021/12/04 13:47:26;;;;;;;22.33;10.40;;;;;;;5.97;41.59;97846.69;4486965;32;20100;-83
2021/12/04 13:49:55;;;;;;;21.98;9.90;;;;;;;5.97;42.10;97845.81;4486949;32;20161;-82
2021/12/04 13:52:21;;;;;;;20.15;9.18;;;;;;;5.87;42.37;97843.66;4473096;32;20096;-82
2021/12/04 13:54:54;;;;;;;18.95;8.65;;;;;;;5.86;42.79;97834.09;4486912;32;20084;-83
2021/12/04 13:57:20;;;;;;;19.60;8.07;;;;;;;5.82;42.74;97836.97;4486926;32;20125;-83
2021/12/04 13:59:46;;;;;;;19.27;8.00;;;;;;;5.79;42.82;97839.72;4486703;32;20134;-83
2021/12/04 14:02:23;;;;;;;16.77;7.15;;;;;;;5.81;43.08;97828.25;4472436;32;20088;-79
2021/12/04 14:05:04;;;;;;;18.10;7.53;;;;;;;5.75;42.97;97812.91;4472007;32;20563;-78
2021/12/04 14:07:30;;;;;;;17.17;7.80;;;;;;;5.73;43.59;97812.13;4486349;32;20111;-79
2021/12/04 14:09:55;;;;;;;20.37;8.40;;;;;;;5.66;43.33;97809.00;4474969;32;20155;-80
2021/12/04 14:12:21;;;;;;;19.87;7.62;;;;;;;5.61;43.59;97792.69;4498962;31;20132;-77
2021/12/04 14:14:47;;;;;;;18.35;8.07;;;;;;;5.55;43.67;97785.16;4480992;31;20136;-80
2021/12/04 14:17:15;;;;;;;18.25;7.43;;;;;;;5.46;44.10;97770.78;4483832;31;20455;-76
2021/12/04 14:19:41;;;;;;;;;;;;;;;5.43;45.31;97770.97;4485285;32;20113;-79
2021/12/04 14:22:19;;;;;;;18.80;8.18;;;;;;;5.39;45.79;97765.94;4481701;32;19992;-78
2021/12/04 14:24:59;;;;;;;18.62;6.93;;;;;;;5.27;45.65;97765.66;4479327;32;20080;-76
2021/12/04 14:27:35;;;;;;;18.30;8.60;;;;;;;5.23;46.09;97769.31;4487261;31;20136;-76
2021/12/04 14:30:09;;;;;;;18.55;8.90;;;;;;;5.16;46.35;97769.69;4484531;32;20452;-79
2021/12/04 14:32:34;;;;;;;18.15;8.73;;;;;;;5.18;46.56;97773.94;4492722;31;20622;-76
2021/12/04 14:35:03;;;;;;;18.33;8.45;;;;;;;5.15;46.30;97778.47;4497643;31;20104;-77
2021/12/04 14:37:32;;;;;;;18.85;8.25;;;;;;;5.17;46.65;97787.06;4488345;31;20152;-77
2021/12/04 14:39:58;;;;;;;19.92;8.05;;;;;;;5.15;46.75;97781.06;4496492;31;20096;-77
2021/12/04 14:42:29;;;;;;;21.58;8.50;;;;;;;5.14;46.64;97788.06;4493332;31;20381;-78
2021/12/04 14:44:57;;;;;;;18.77;7.90;;;;;;;5.04;46.73;97781.59;4491858;31;20083;-77
2021/12/04 14:47:28;;;;;;;23.33;9.38;;;;;;;5.01;46.59;97784.38;4500671;31;20091;-75
2021/12/04 14:49:59;;;;;;;19.73;9.27;;;;;;;5.00;46.47;97788.72;4477882;31;20124;-75